Time;durP1;ratioP1;P1;durP2;ratioP2;P2;SDS_P1;SDS_P2;PMS_P1;PMS_P2;Temp;Humidity;BMP_temperature;BMP_pressure;BME280_temperature;BME280_humidity;BME280_pressure;Samples;Min_cycle;Max_cycle;Signal;HPM_P1;HPM_P2
2022/08/26 00:00:06;;;;;;;;;;;25.10;56.90;;;;;;5027788;28;19979;-62
2022/08/26 00:02:33;;;;;;;;;;;25.10;57.00;;;;;;5031270;28;19925;-61
2022/08/26 00:05:02;;;;;;;;;;;25.10;56.90;;;;;;5028883;28;19921;-62
2022/08/26 00:07:29;;;;;;;;;;;25.10;57.00;;;;;;5026184;28;19976;-62
2022/08/26 00:09:56;;;;;;;;;;;25.10;57.10;;;;;;5025977;28;20375;-62
2022/08/26 00:12:22;;;;;;;;;;;25.10;57.00;;;;;;5049891;28;19925;-63
2022/08/26 00:14:49;;;;;;;;;;;25.10;57.10;;;;;;5026256;28;19921;-62
2022/08/26 00:17:17;;;;;;;;;;;25.10;57.20;;;;;;5030145;28;19924;-62
2022/08/26 00:19:44;;;;;;;;;;;25.10;57.30;;;;;;5029184;28;19928;-62
2022/08/26 00:22:12;;;;;;;;;;;25.10;57.30;;;;;;5027545;28;19921;-62
2022/08/26 00:24:39;;;;;;;;;;;25.10;57.40;;;;;;5031574;28;19928;-62
2022/08/26 00:27:06;;;;;;;;;;;25.10;57.50;;;;;;5062159;28;19921;-63
2022/08/26 00:29:33;;;;;;;;;;;25.10;57.50;;;;;;5026738;28;20330;-62
2022/08/26 00:32:01;;;;;;;;;;;25.10;57.60;;;;;;5062954;28;19986;-63
2022/08/26 00:34:28;;;;;;;;;;;25.10;57.50;;;;;;5027889;28;19932;-62
2022/08/26 00:36:54;;;;;;;;;;;25.10;57.60;;;;;;5029611;28;20003;-63
2022/08/26 00:39:22;;;;;;;;;;;25.10;57.70;;;;;;5028241;28;19933;-64
2022/08/26 00:41:49;;;;;;;;;;;25.10;57.70;;;;;;5047446;28;19921;-63
2022/08/26 00:44:16;;;;;;;;;;;25.10;57.80;;;;;;5028749;28;19921;-63
2022/08/26 00:46:43;;;;;;;;;;;25.10;57.80;;;;;;5027656;28;20329;-63
2022/08/26 00:49:11;;;;;;;;;;;25.10;57.90;;;;;;5014575;28;19928;-63
2022/08/26 00:51:39;;;;;;;;;;;25.00;57.90;;;;;;5030360;28;19987;-63
2022/08/26 00:54:08;;;;;;;;;;;25.10;58.00;;;;;;5017890;28;19991;-63
2022/08/26 00:56:37;;;;;;;;;;;25.00;58.10;;;;;;5020646;28;19960;-63
2022/08/26 00:59:05;;;;;;;;;;;25.00;58.00;;;;;;5029162;28;19928;-63
2022/08/26 01:01:32;;;;;;;;;;;25.00;58.20;;;;;;5024560;28;19949;-63
2022/08/26 01:03:58;;;;;;;;;;;25.00;58.30;;;;;;5023768;28;19945;-63
2022/08/26 01:06:26;;;;;;;;;;;25.00;58.30;;;;;;5023288;28;20359;-63
2022/08/26 01:08:52;;;;;;;;;;;25.00;58.30;;;;;;5021463;28;19985;-63
2022/08/26 01:11:19;;;;;;;;;;;25.00;58.40;;;;;;5022429;28;20389;-63
2022/08/26 01:13:47;;;;;;;;;;;25.00;59.00;;;;;;5045150;28;19921;-62
2022/08/26 01:16:15;;;;;;;;;;;25.00;58.40;;;;;;5022355;28;19929;-63
2022/08/26 01:18:42;;;;;;;;;;;25.00;58.40;;;;;;5009304;28;19921;-63
2022/08/26 01:21:11;;;;;;;;;;;25.00;58.30;;;;;;5021245;28;19925;-63
2022/08/26 01:23:40;;;;;;;;;;;25.00;58.50;;;;;;5021670;28;19984;-63
2022/08/26 01:26:07;;;;;;;;;;;25.00;58.50;;;;;;5035820;28;19932;-63
2022/08/26 01:28:34;;;;;;;;;;;25.00;58.60;;;;;;5024533;28;19959;-64
2022/08/26 01:31:01;;;;;;;;;;;25.00;58.60;;;;;;5031439;28;20455;-63
2022/08/26 01:33:29;;;;;;;;;;;25.00;58.60;;;;;;5032963;28;19983;-63
2022/08/26 01:35:56;;;;;;;;;;;25.00;58.70;;;;;;5030854;28;19984;-62
2022/08/26 01:38:22;;;;;;;;;;;25.00;58.80;;;;;;5019152;28;19925;-63
2022/08/26 01:40:51;;;;;;;;;;;25.00;58.60;;;;;;5032627;28;19932;-63
2022/08/26 01:43:18;;;;;;;;;;;25.00;58.80;;;;;;5066858;28;20274;-63
2022/08/26 01:45:45;;;;;;;;;;;25.00;58.80;;;;;;5044073;28;19925;-63
2022/08/26 01:48:12;;;;;;;;;;;25.00;58.80;;;;;;5065741;28;19921;-63
2022/08/26 01:50:39;;;;;;;;;;;25.00;58.90;;;;;;5027157;28;19921;-63
2022/08/26 01:53:07;;;;;;;;;;;25.00;58.90;;;;;;5037871;28;19931;-62
2022/08/26 01:55:33;;;;;;;;;;;25.00;58.90;;;;;;5040789;28;20367;-63
2022/08/26 01:58:03;;;;;;;;;;;25.00;58.90;;;;;;5028665;28;19921;-63
2022/08/26 02:00:30;;;;;;;;;;;25.00;59.00;;;;;;5024537;28;19928;-63
2022/08/26 02:05:37;;;;;;;;;;;25.00;59.00;;;;;;5016905;28;19928;-63
2022/08/26 02:08:04;;;;;;;;;;;25.00;59.60;;;;;;5026732;28;19921;-63
2022/08/26 02:10:31;;;;;;;;;;;25.00;59.10;;;;;;5018131;28;20321;-63
2022/08/26 02:12:57;;;;;;;;;;;25.00;59.00;;;;;;5063661;28;19987;-63
2022/08/26 02:15:25;;;;;;;;;;;25.00;59.10;;;;;;5035144;28;20370;-63
2022/08/26 02:17:52;;;;;;;;;;;25.00;59.10;;;;;;5049191;28;19922;-63
2022/08/26 02:20:19;;;;;;;;;;;25.00;59.10;;;;;;5030585;28;19921;-63
2022/08/26 02:22:46;;;;;;;;;;;25.00;59.20;;;;;;5031727;28;20059;-63
2022/08/26 02:25:15;;;;;;;;;;;25.00;59.20;;;;;;5064737;28;19956;-63
2022/08/26 02:27:42;;;;;;;;;;;24.90;59.00;;;;;;5064324;28;19921;-63
2022/08/26 02:30:09;;;;;;;;;;;25.00;59.20;;;;;;5031720;28;19924;-63
2022/08/26 02:32:37;;;;;;;;;;;24.90;59.20;;;;;;5054229;28;19926;-63
2022/08/26 02:35:04;;;;;;;;;;;24.90;59.20;;;;;;5011857;28;20406;-63
2022/08/26 02:37:31;;;;;;;;;;;24.90;59.20;;;;;;5054122;28;19929;-63
2022/08/26 02:39:58;;;;;;;;;;;24.90;59.30;;;;;;5011880;28;19971;-63
2022/08/26 02:42:24;;;;;;;;;;;24.90;59.20;;;;;;5030799;28;19921;-63
2022/08/26 02:44:51;;;;;;;;;;;24.90;59.30;;;;;;5026259;28;19925;-63
2022/08/26 02:47:18;;;;;;;;;;;24.90;59.30;;;;;;5030899;28;20396;-63
2022/08/26 02:49:46;;;;;;;;;;;24.90;59.30;;;;;;5064632;28;19979;-63
2022/08/26 02:52:13;;;;;;;;;;;24.90;59.40;;;;;;5026911;28;19928;-63
2022/08/26 02:54:40;;;;;;;;;;;24.90;59.30;;;;;;5011820;28;19948;-63
2022/08/26 02:57:06;;;;;;;;;;;24.90;59.40;;;;;;5040652;28;20356;-62
2022/08/26 02:59:34;;;;;;;;;;;24.90;59.40;;;;;;5031154;28;19921;-63
2022/08/26 03:02:01;;;;;;;;;;;24.90;59.40;;;;;;5030785;28;19983;-63
2022/08/26 03:04:29;;;;;;;;;;;24.90;59.50;;;;;;5036672;28;19925;-62
2022/08/26 03:06:57;;;;;;;;;;;24.90;59.50;;;;;;5055508;28;19928;-63
2022/08/26 03:09:24;;;;;;;;;;;24.90;59.40;;;;;;5023629;28;19921;-62
2022/08/26 03:11:51;;;;;;;;;;;24.90;59.50;;;;;;5025005;28;20016;-63
2022/08/26 03:14:17;;;;;;;;;;;24.90;59.50;;;;;;5032238;28;19968;-63
2022/08/26 03:16:44;;;;;;;;;;;24.90;59.60;;;;;;5062579;28;19971;-63
2022/08/26 03:19:11;;;;;;;;;;;24.90;59.70;;;;;;5029565;28;19921;-63
2022/08/26 03:21:38;;;;;;;;;;;24.90;59.70;;;;;;5031519;28;19921;-63
2022/08/26 03:24:09;;;;;;;;;;;24.90;59.80;;;;;;5030329;28;19930;-63
2022/08/26 03:26:36;;;;;;;;;;;24.90;59.80;;;;;;5021849;28;19925;-63
2022/08/26 03:31:47;;;;;;;;;;;24.90;59.80;;;;;;5028490;28;19968;-63
2022/08/26 03:34:14;;;;;;;;;;;24.90;59.80;;;;;;5008959;28;19921;-62
2022/08/26 03:36:42;;;;;;;;;;;24.90;59.80;;;;;;5012101;28;19975;-63
2022/08/26 03:39:10;;;;;;;;;;;24.90;59.90;;;;;;5010635;28;19932;-64
2022/08/26 03:41:36;;;;;;;;;;;24.90;59.90;;;;;;5030459;28;19972;-63
2022/08/26 03:44:03;;;;;;;;;;;24.90;59.80;;;;;;5061645;28;20032;-63
2022/08/26 03:46:30;;;;;;;;;;;24.90;59.90;;;;;;5011907;28;19922;-63
2022/08/26 03:48:57;;;;;;;;;;;24.90;59.90;;;;;;5013154;28;20354;-64
2022/08/26 03:51:24;;;;;;;;;;;24.90;59.80;;;;;;5015619;28;19928;-63
2022/08/26 03:53:50;;;;;;;;;;;24.90;59.90;;;;;;5010140;28;19921;-63
2022/08/26 03:56:18;;;;;;;;;;;24.90;60.00;;;;;;5013208;28;19936;-63
2022/08/26 03:58:45;;;;;;;;;;;24.90;60.00;;;;;;5023195;28;20363;-62
2022/08/26 04:01:12;;;;;;;;;;;24.90;59.90;;;;;;5028589;28;19927;-63
2022/08/26 04:06:23;;;;;;;;;;;24.90;60.00;;;;;;5062449;28;19921;-63
2022/08/26 04:08:49;;;;;;;;;;;24.80;59.90;;;;;;5026839;28;19952;-63
2022/08/26 04:11:17;;;;;;;;;;;24.80;59.90;;;;;;5018547;28;19967;-63
2022/08/26 04:13:45;;;;;;;;;;;24.80;60.00;;;;;;5031456;28;19921;-63
2022/08/26 04:16:12;;;;;;;;;;;24.80;60.00;;;;;;5047241;28;20004;-63
2022/08/26 04:18:39;;;;;;;;;;;24.80;60.00;;;;;;5020662;28;19926;-64
2022/08/26 04:21:06;;;;;;;;;;;24.80;60.00;;;;;;5012073;28;20016;-63
2022/08/26 04:23:33;;;;;;;;;;;24.80;60.00;;;;;;5021056;28;19976;-62
2022/08/26 04:26:00;;;;;;;;;;;24.80;60.00;;;;;;5028096;28;19925;-63
2022/08/26 04:28:27;;;;;;;;;;;24.80;60.00;;;;;;5062676;28;20023;-63
2022/08/26 04:30:55;;;;;;;;;;;24.80;60.00;;;;;;5029715;28;20266;-63
2022/08/26 04:33:22;;;;;;;;;;;24.80;60.00;;;;;;5020702;28;19975;-63
2022/08/26 04:35:48;;;;;;;;;;;24.80;60.00;;;;;;5063594;28;20023;-63
2022/08/26 04:38:18;;;;;;;;;;;24.80;60.00;;;;;;4994778;28;19964;-63
2022/08/26 04:40:45;;;;;;;;;;;24.80;60.20;;;;;;5011171;28;19980;-63
2022/08/26 04:43:12;;;;;;;;;;;24.80;60.20;;;;;;5013255;28;19952;-63
2022/08/26 04:45:38;;;;;;;;;;;24.80;60.20;;;;;;5011181;28;19937;-63
2022/08/26 04:48:07;;;;;;;;;;;24.80;60.30;;;;;;5028122;28;19975;-63
2022/08/26 04:50:36;;;;;;;;;;;24.70;60.30;;;;;;5030728;28;19983;-63
2022/08/26 04:53:06;;;;;;;;;;;24.70;60.30;;;;;;5013493;28;19925;-63
2022/08/26 04:55:33;;;;;;;;;;;24.70;60.30;;;;;;5013303;28;19964;-63
2022/08/26 04:57:59;;;;;;;;;;;24.70;60.40;;;;;;5027047;28;19921;-63
2022/08/26 05:00:26;;;;;;;;;;;24.70;60.50;;;;;;5060238;28;19929;-63
2022/08/26 05:02:53;;;;;;;;;;;24.70;60.40;;;;;;5029628;28;19925;-63
2022/08/26 05:05:21;;;;;;;;;;;24.70;60.40;;;;;;5061113;28;19925;-63
2022/08/26 05:07:48;;;;;;;;;;;24.70;60.40;;;;;;5012359;28;20454;-65
2022/08/26 05:10:14;;;;;;;;;;;24.70;60.40;;;;;;5012584;28;19979;-63
2022/08/26 05:12:41;;;;;;;;;;;24.70;60.50;;;;;;5022984;28;19925;-63
2022/08/26 05:15:09;;;;;;;;;;;24.70;60.60;;;;;;5043896;28;19983;-63
2022/08/26 05:17:35;;;;;;;;;;;24.70;60.60;;;;;;5050863;28;20270;-62
2022/08/26 05:20:02;;;;;;;;;;;24.70;60.70;;;;;;5041631;28;19991;-63
2022/08/26 05:22:31;;;;;;;;;;;24.70;60.70;;;;;;5028037;28;19925;-63
2022/08/26 05:24:57;;;;;;;;;;;24.70;60.70;;;;;;5012042;28;19926;-63
2022/08/26 05:27:24;;;;;;;;;;;24.70;60.70;;;;;;5013150;28;20453;-63
2022/08/26 05:29:51;;;;;;;;;;;24.70;60.70;;;;;;5025818;28;19921;-63
2022/08/26 05:32:18;;;;;;;;;;;24.70;60.70;;;;;;5013182;28;19956;-63
2022/08/26 05:34:44;;;;;;;;;;;24.70;60.70;;;;;;5047661;28;20310;-63
2022/08/26 05:37:11;;;;;;;;;;;24.70;60.90;;;;;;5033677;28;19971;-63
2022/08/26 05:39:39;;;;;;;;;;;24.70;60.80;;;;;;5008639;28;19975;-63
2022/08/26 05:42:07;;;;;;;;;;;24.70;60.90;;;;;;5035046;28;19925;-63
2022/08/26 05:44:33;;;;;;;;;;;24.70;60.90;;;;;;5030007;28;19925;-63
2022/08/26 05:47:00;;;;;;;;;;;24.70;60.90;;;;;;5029599;28;19995;-63
2022/08/26 05:49:27;;;;;;;;;;;24.70;60.90;;;;;;5017682;28;19945;-63
2022/08/26 05:51:53;;;;;;;;;;;24.70;61.00;;;;;;5016514;28;20037;-63
2022/08/26 05:54:20;;;;;;;;;;;24.70;61.00;;;;;;5023697;28;20011;-63
2022/08/26 05:56:48;;;;;;;;;;;24.70;60.90;;;;;;5011463;28;20012;-63
2022/08/26 05:59:15;;;;;;;;;;;24.70;61.00;;;;;;5044408;28;19957;-63
2022/08/26 06:01:42;;;;;;;;;;;24.70;61.00;;;;;;5014176;28;19968;-63
2022/08/26 06:04:08;;;;;;;;;;;24.70;61.00;;;;;;5052308;28;19936;-63
2022/08/26 06:06:39;;;;;;;;;;;24.70;61.00;;;;;;5027537;28;19921;-63
2022/08/26 06:09:06;;;;;;;;;;;24.70;60.90;;;;;;5030234;28;19927;-64
2022/08/26 06:11:33;;;;;;;;;;;24.70;60.80;;;;;;5025164;28;19936;-62
2022/08/26 06:14:02;;;;;;;;;;;24.70;60.80;;;;;;5027738;28;19921;-63
2022/08/26 06:16:29;;;;;;;;;;;24.70;60.90;;;;;;5047165;28;19971;-63
2022/08/26 06:18:56;;;;;;;;;;;24.70;61.00;;;;;;5036829;28;19968;-63
2022/08/26 06:21:23;;;;;;;;;;;24.70;61.00;;;;;;5031187;28;19928;-63
2022/08/26 06:26:34;;;;;;;;;;;24.70;61.20;;;;;;5047593;28;19922;-63
2022/08/26 06:29:03;;;;;;;;;;;24.70;61.20;;;;;;5046789;28;19921;-63
2022/08/26 06:31:29;;;;;;;;;;;24.70;61.20;;;;;;5029963;28;19984;-63
2022/08/26 06:33:57;;;;;;;;;;;24.70;61.30;;;;;;5069004;28;19988;-63
2022/08/26 06:36:24;;;;;;;;;;;24.70;61.30;;;;;;5029140;28;19932;-63
2022/08/26 06:38:51;;;;;;;;;;;24.70;61.30;;;;;;5027255;28;19933;-63
2022/08/26 06:41:19;;;;;;;;;;;24.70;61.30;;;;;;5046529;28;20000;-63
2022/08/26 06:43:46;;;;;;;;;;;24.70;61.20;;;;;;5033404;28;19921;-63
2022/08/26 06:46:16;;;;;;;;;;;24.70;61.20;;;;;;5044916;28;19933;-63
2022/08/26 06:48:43;;;;;;;;;;;24.70;61.30;;;;;;5026757;28;19971;-63
2022/08/26 06:51:11;;;;;;;;;;;24.70;61.20;;;;;;5043449;28;19933;-63
2022/08/26 06:53:38;;;;;;;;;;;24.70;61.30;;;;;;5025108;28;19960;-64
2022/08/26 06:56:06;;;;;;;;;;;24.70;61.40;;;;;;5067813;28;19990;-63
2022/08/26 06:58:32;;;;;;;;;;;24.70;61.40;;;;;;5018709;28;19968;-64
2022/08/26 07:00:59;;;;;;;;;;;24.80;61.60;;;;;;5040393;28;19921;-64
2022/08/26 07:03:27;;;;;;;;;;;24.70;61.60;;;;;;5021917;28;19929;-64
2022/08/26 07:05:54;;;;;;;;;;;24.70;61.60;;;;;;5025660;28;19952;-64
2022/08/26 07:08:21;;;;;;;;;;;24.80;61.70;;;;;;5052255;28;20008;-64
2022/08/26 07:10:48;;;;;;;;;;;24.80;61.70;;;;;;5016780;28;19927;-65
2022/08/26 07:13:15;;;;;;;;;;;24.80;61.60;;;;;;5027942;28;19921;-64
2022/08/26 07:15:42;;;;;;;;;;;24.80;61.40;;;;;;5025224;28;20006;-63
2022/08/26 07:18:08;;;;;;;;;;;24.80;61.40;;;;;;5029072;28;19936;-63
2022/08/26 07:20:40;;;;;;;;;;;24.80;61.20;;;;;;5029915;28;19933;-64
2022/08/26 07:23:07;;;;;;;;;;;24.80;61.20;;;;;;5058577;28;20346;-63
2022/08/26 07:25:33;;;;;;;;;;;24.80;61.10;;;;;;5029468;28;20348;-64
2022/08/26 07:28:00;;;;;;;;;;;24.80;61.20;;;;;;5040724;28;20027;-63
2022/08/26 07:30:27;;;;;;;;;;;24.80;61.20;;;;;;5026884;28;19925;-64
2022/08/26 07:32:55;;;;;;;;;;;24.80;61.20;;;;;;5025158;28;19921;-64
2022/08/26 07:35:22;;;;;;;;;;;24.80;61.10;;;;;;5043614;28;19975;-63
2022/08/26 07:37:50;;;;;;;;;;;24.90;61.20;;;;;;5028770;28;20011;-63
2022/08/26 07:40:17;;;;;;;;;;;24.90;61.10;;;;;;5029851;28;19925;-63
2022/08/26 07:42:44;;;;;;;;;;;24.90;61.00;;;;;;5027067;28;19983;-63
2022/08/26 07:45:10;;;;;;;;;;;24.90;60.90;;;;;;5057740;28;19991;-63
2022/08/26 07:47:37;;;;;;;;;;;24.90;60.80;;;;;;5029236;28;19957;-62
2022/08/26 07:50:04;;;;;;;;;;;24.90;60.70;;;;;;5023563;28;19932;-63
2022/08/26 07:52:31;;;;;;;;;;;24.90;60.60;;;;;;5022482;28;19964;-63
2022/08/26 07:55:00;;;;;;;;;;;24.90;60.60;;;;;;5026011;28;19927;-63
2022/08/26 07:57:27;;;;;;;;;;;24.90;60.50;;;;;;5026302;28;19975;-63
2022/08/26 07:59:54;;;;;;;;;;;24.90;60.50;;;;;;5027622;28;20015;-63
2022/08/26 08:02:21;;;;;;;;;;;24.90;60.50;;;;;;5027142;28;20039;-62
2022/08/26 08:04:47;;;;;;;;;;;25.00;60.60;;;;;;5056804;28;20252;-63
2022/08/26 08:07:14;;;;;;;;;;;24.90;60.40;;;;;;5023706;28;20542;-62
2022/08/26 08:09:41;;;;;;;;;;;25.00;60.50;;;;;;5027822;28;19921;-63
2022/08/26 08:12:09;;;;;;;;;;;25.00;60.50;;;;;;5025874;28;19964;-62
2022/08/26 08:14:36;;;;;;;;;;;25.00;60.40;;;;;;5024792;28;20374;-64
2022/08/26 08:17:02;;;;;;;;;;;25.00;60.40;;;;;;5026105;28;20375;-63
2022/08/26 08:19:29;;;;;;;;;;;25.00;60.40;;;;;;5027656;28;19925;-62
2022/08/26 08:21:56;;;;;;;;;;;25.00;60.30;;;;;;5026728;28;19963;-63
2022/08/26 08:24:23;;;;;;;;;;;25.00;60.40;;;;;;5026323;28;19979;-63
2022/08/26 08:26:50;;;;;;;;;;;25.10;60.40;;;;;;5028283;28;19921;-63
2022/08/26 08:29:18;;;;;;;;;;;25.10;60.30;;;;;;5023386;28;19975;-62
2022/08/26 08:31:47;;;;;;;;;;;25.10;60.30;;;;;;5026299;28;19928;-62
2022/08/26 08:34:14;;;;;;;;;;;25.10;60.30;;;;;;5025633;28;19928;-63
2022/08/26 08:36:41;;;;;;;;;;;25.10;60.40;;;;;;5023576;28;19996;-62
2022/08/26 08:39:07;;;;;;;;;;;25.10;60.40;;;;;;5022349;28;19924;-63
2022/08/26 08:41:38;;;;;;;;;;;25.10;60.30;;;;;;5029962;28;19928;-66
2022/08/26 08:44:08;;;;;;;;;;;25.10;60.30;;;;;;5024471;28;19921;-64
2022/08/26 08:46:36;;;;;;;;;;;25.10;60.60;;;;;;5024067;28;19967;-65
2022/08/26 08:49:03;;;;;;;;;;;25.10;60.80;;;;;;5026020;28;19927;-65
2022/08/26 08:51:31;;;;;;;;;;;25.10;60.70;;;;;;5025102;28;19925;-66
2022/08/26 08:53:58;;;;;;;;;;;25.10;60.70;;;;;;5020608;28;19924;-65
2022/08/26 08:56:26;;;;;;;;;;;25.20;60.80;;;;;;5026955;28;19929;-65
2022/08/26 08:58:56;;;;;;;;;;;25.20;60.80;;;;;;5018597;28;19921;-66
2022/08/26 09:01:25;;;;;;;;;;;25.20;60.70;;;;;;5018396;28;19928;-65
2022/08/26 09:03:55;;;;;;;;;;;25.20;60.60;;;;;;5014373;28;19990;-65
2022/08/26 09:06:22;;;;;;;;;;;25.20;60.60;;;;;;5013877;28;19929;-65
2022/08/26 09:08:49;;;;;;;;;;;25.20;60.70;;;;;;5015771;28;20259;-65
2022/08/26 09:11:16;;;;;;;;;;;25.20;60.60;;;;;;5050465;28;20013;-65
2022/08/26 09:13:44;;;;;;;;;;;25.20;60.80;;;;;;5011068;28;19941;-64
2022/08/26 09:16:12;;;;;;;;;;;25.20;60.70;;;;;;5021371;28;19937;-65
2022/08/26 09:18:43;;;;;;;;;;;25.20;60.60;;;;;;5018703;28;20019;-65
2022/08/26 09:21:11;;;;;;;;;;;25.20;60.60;;;;;;5022672;28;19921;-65
2022/08/26 09:23:39;;;;;;;;;;;25.20;60.50;;;;;;5037606;28;19960;-64
2022/08/26 09:26:13;;;;;;;;;;;25.20;60.60;;;;;;5057503;28;20376;-65
2022/08/26 09:28:40;;;;;;;;;;;25.20;60.50;;;;;;5024582;28;19968;-64
2022/08/26 09:31:10;;;;;;;;;;;25.20;60.60;;;;;;5018528;28;19929;-63
2022/08/26 09:33:37;;;;;;;;;;;25.30;60.60;;;;;;5022816;28;19921;-63
2022/08/26 09:36:17;;;;;;;;;;;25.30;60.60;;;;;;5056794;28;19925;-63
2022/08/26 09:38:44;;;;;;;;;;;25.30;60.70;;;;;;5023127;28;19922;-63
2022/08/26 09:41:26;;;;;;;;;;;25.30;60.70;;;;;;5026006;28;20392;-64
2022/08/26 09:44:12;;;;;;;;;;;25.30;60.70;;;;;;5024079;28;19926;-64
2022/08/26 09:46:39;;;;;;;;;;;25.30;60.80;;;;;;5059248;28;19940;-65
2022/08/26 09:49:27;;;;;;;;;;;25.30;61.60;;;;;;5023670;28;19925;-65
2022/08/26 09:52:06;;;;;;;;;;;25.30;60.80;;;;;;5024620;28;20420;-65
2022/08/26 09:54:32;;;;;;;;;;;25.30;60.90;;;;;;5025695;28;20289;-64
2022/08/26 09:57:10;;;;;;;;;;;25.30;60.70;;;;;;5028312;28;19937;-65
2022/08/26 09:59:36;;;;;;;;;;;25.30;60.70;;;;;;5027263;28;20389;-64
2022/08/26 10:02:15;;;;;;;;;;;25.40;60.90;;;;;;5013044;28;19927;-64
2022/08/26 10:04:42;;;;;;;;;;;25.40;60.90;;;;;;5025387;28;19933;-65
2022/08/26 10:07:10;;;;;;;;;;;25.40;60.90;;;;;;5030491;28;19925;-64
2022/08/26 10:09:37;;;;;;;;;;;25.40;60.80;;;;;;5027353;28;19922;-65
2022/08/26 10:12:05;;;;;;;;;;;25.40;60.90;;;;;;5029569;28;19925;-65
2022/08/26 10:14:32;;;;;;;;;;;25.40;60.80;;;;;;5025174;28;20285;-66
2022/08/26 10:17:01;;;;;;;;;;;25.40;60.80;;;;;;5027968;28;19968;-65
2022/08/26 10:19:28;;;;;;;;;;;25.40;60.80;;;;;;5026594;28;20027;-63
2022/08/26 10:21:56;;;;;;;;;;;25.40;60.80;;;;;;5027486;28;20498;-64
2022/08/26 10:24:25;;;;;;;;;;;25.40;60.80;;;;;;5028331;28;19928;-65
2022/08/26 10:26:57;;;;;;;;;;;25.40;60.80;;;;;;5029328;28;19921;-66
2022/08/26 10:29:25;;;;;;;;;;;25.50;60.80;;;;;;5032672;28;19920;-65
2022/08/26 10:31:54;;;;;;;;;;;25.50;60.80;;;;;;5030190;28;19933;-66
2022/08/26 10:34:21;;;;;;;;;;;25.50;61.30;;;;;;5027554;28;19925;-65
2022/08/26 10:36:56;;;;;;;;;;;25.50;61.20;;;;;;5026941;28;19975;-65
2022/08/26 10:39:25;;;;;;;;;;;25.50;61.10;;;;;;5059434;28;20278;-65
2022/08/26 10:41:53;;;;;;;;;;;25.50;61.20;;;;;;5028002;28;19972;-64
2022/08/26 10:44:20;;;;;;;;;;;25.50;61.30;;;;;;5019537;28;20083;-66
2022/08/26 10:46:47;;;;;;;;;;;25.50;61.30;;;;;;5033818;28;19925;-66
2022/08/26 10:49:14;;;;;;;;;;;25.50;61.20;;;;;;5029511;28;20266;-66
2022/08/26 10:51:42;;;;;;;;;;;25.50;61.20;;;;;;5029958;28;19921;-66
2022/08/26 10:54:10;;;;;;;;;;;25.50;61.40;;;;;;5027079;28;19979;-65
2022/08/26 10:56:40;;;;;;;;;;;25.50;61.30;;;;;;5026565;28;19993;-66
2022/08/26 10:59:09;;;;;;;;;;;25.60;61.20;;;;;;5030303;28;19931;-65
2022/08/26 11:01:44;;;;;;;;;;;25.50;61.10;;;;;;5023163;28;19992;-66
2022/08/26 11:04:16;;;;;;;;;;;25.60;61.30;;;;;;5025081;28;19929;-66
2022/08/26 11:06:44;;;;;;;;;;;25.60;61.20;;;;;;5026933;28;19961;-66
2022/08/26 11:09:11;;;;;;;;;;;25.60;61.10;;;;;;5035184;28;19928;-66
2022/08/26 11:11:47;;;;;;;;;;;25.60;61.00;;;;;;5049537;28;20027;-66
2022/08/26 11:14:30;;;;;;;;;;;25.60;61.00;;;;;;5022552;28;20468;-64
2022/08/26 11:16:57;;;;;;;;;;;25.60;60.90;;;;;;5056906;28;19927;-65
2022/08/26 11:19:42;;;;;;;;;;;25.60;60.80;;;;;;5022380;28;19921;-65
2022/08/26 11:22:10;;;;;;;;;;;25.60;60.70;;;;;;5020891;28;19936;-63
2022/08/26 11:24:40;;;;;;;;;;;25.60;60.60;;;;;;5028415;28;19929;-64
2022/08/26 11:27:10;;;;;;;;;;;25.60;60.60;;;;;;5023057;28;19935;-64
2022/08/26 11:29:56;;;;;;;;;;;25.60;60.50;;;;;;5026155;28;19921;-64
2022/08/26 11:32:24;;;;;;;;;;;25.60;60.40;;;;;;5026081;28;19952;-64
2022/08/26 11:34:52;;;;;;;;;;;25.60;60.40;;;;;;5026941;28;19928;-66
2022/08/26 11:37:19;;;;;;;;;;;25.60;60.40;;;;;;5047701;28;20024;-63
2022/08/26 11:39:47;;;;;;;;;;;25.60;60.30;;;;;;5025219;28;19933;-65
2022/08/26 11:42:19;;;;;;;;;;;25.60;60.30;;;;;;5028763;28;20362;-65
2022/08/26 11:44:46;;;;;;;;;;;25.60;60.20;;;;;;5021545;28;19934;-65
2022/08/26 11:47:13;;;;;;;;;;;25.60;60.20;;;;;;5025294;28;19925;-67
2022/08/26 11:49:40;;;;;;;;;;;25.60;60.20;;;;;;5025491;28;20020;-65
2022/08/26 11:52:14;;;;;;;;;;;25.60;60.20;;;;;;5026650;28;20536;-64
2022/08/26 11:54:41;;;;;;;;;;;25.60;60.90;;;;;;5030085;28;19929;-64
2022/08/26 11:57:08;;;;;;;;;;;25.60;60.10;;;;;;5030183;28;20015;-65
2022/08/26 11:59:37;;;;;;;;;;;25.60;60.10;;;;;;5025971;28;19960;-65
2022/08/26 12:02:04;;;;;;;;;;;25.60;60.10;;;;;;5023065;28;20016;-64
2022/08/26 12:04:32;;;;;;;;;;;25.70;60.10;;;;;;5025400;28;20043;-65
2022/08/26 12:06:59;;;;;;;;;;;25.60;60.10;;;;;;5028584;28;19932;-63
2022/08/26 12:09:26;;;;;;;;;;;25.60;60.00;;;;;;5028500;28;19932;-64
2022/08/26 12:11:54;;;;;;;;;;;25.70;60.10;;;;;;5023559;28;19976;-64
2022/08/26 12:14:23;;;;;;;;;;;25.60;59.90;;;;;;5028978;28;19999;-63
2022/08/26 12:16:52;;;;;;;;;;;25.70;60.00;;;;;;5027044;28;19926;-63
2022/08/26 12:19:24;;;;;;;;;;;25.70;60.00;;;;;;5025933;28;20345;-65
2022/08/26 12:21:52;;;;;;;;;;;25.70;59.90;;;;;;5028582;28;19975;-65
2022/08/26 12:24:19;;;;;;;;;;;25.70;59.90;;;;;;5018511;28;19933;-64
2022/08/26 12:26:45;;;;;;;;;;;25.70;59.90;;;;;;5022768;28;19932;-66
2022/08/26 12:29:13;;;;;;;;;;;25.70;59.80;;;;;;5016328;28;19932;-64
2022/08/26 12:31:40;;;;;;;;;;;25.70;59.80;;;;;;5028410;28;20369;-65
2022/08/26 12:34:08;;;;;;;;;;;25.70;59.80;;;;;;5023933;28;19928;-65
2022/08/26 12:36:36;;;;;;;;;;;25.70;59.80;;;;;;5024005;28;19921;-66
2022/08/26 12:39:07;;;;;;;;;;;25.70;59.70;;;;;;5028201;28;19975;-65
2022/08/26 12:41:41;;;;;;;;;;;25.70;59.80;;;;;;5026049;28;19932;-65
2022/08/26 12:44:08;;;;;;;;;;;25.70;59.70;;;;;;5023084;28;19929;-65
2022/08/26 12:46:35;;;;;;;;;;;25.70;59.70;;;;;;5042964;28;19925;-65
2022/08/26 12:49:02;;;;;;;;;;;25.70;59.70;;;;;;5030085;28;19921;-64
2022/08/26 12:51:30;;;;;;;;;;;25.70;59.60;;;;;;5023984;28;19929;-65
2022/08/26 12:53:59;;;;;;;;;;;25.70;59.60;;;;;;5021352;28;20123;-65
2022/08/26 12:56:27;;;;;;;;;;;25.70;59.70;;;;;;5025930;28;19928;-64
2022/08/26 12:59:01;;;;;;;;;;;25.70;59.60;;;;;;5026553;28;19929;-65
2022/08/26 13:01:29;;;;;;;;;;;25.70;59.60;;;;;;5019577;28;19925;-65
2022/08/26 13:03:56;;;;;;;;;;;25.70;59.60;;;;;;5020960;28;20090;-64
2022/08/26 13:06:28;;;;;;;;;;;25.70;59.60;;;;;;5023161;28;19960;-64
2022/08/26 13:08:57;;;;;;;;;;;25.70;59.60;;;;;;5022392;28;20370;-64
2022/08/26 13:11:24;;;;;;;;;;;25.70;59.70;;;;;;5027528;28;19925;-65
2022/08/26 13:13:51;;;;;;;;;;;25.70;59.70;;;;;;5021690;28;19933;-65
2022/08/26 13:16:18;;;;;;;;;;;25.70;59.90;;;;;;5024209;28;20584;-63
2022/08/26 13:18:45;;;;;;;;;;;25.70;59.90;;;;;;5023850;28;19925;-64
2022/08/26 13:21:13;;;;;;;;;;;25.70;60.00;;;;;;5025835;28;19928;-63
2022/08/26 13:23:39;;;;;;;;;;;25.70;59.90;;;;;;5026431;28;19921;-64
2022/08/26 13:26:07;;;;;;;;;;;25.70;59.90;;;;;;5023239;28;19921;-64
2022/08/26 13:28:34;;;;;;;;;;;25.70;60.00;;;;;;5025100;28;19929;-65
2022/08/26 13:31:01;;;;;;;;;;;25.80;60.10;;;;;;5024365;28;19929;-63
2022/08/26 13:33:28;;;;;;;;;;;25.80;60.20;;;;;;5026850;28;19921;-64
2022/08/26 13:35:55;;;;;;;;;;;25.70;60.10;;;;;;5023784;28;19976;-63
2022/08/26 13:38:21;;;;;;;;;;;25.80;60.20;;;;;;5024309;28;19940;-63
2022/08/26 13:40:48;;;;;;;;;;;25.80;60.20;;;;;;5024911;28;19921;-63
2022/08/26 13:43:16;;;;;;;;;;;25.80;60.30;;;;;;5026225;28;19925;-63
2022/08/26 13:45:48;;;;;;;;;;;25.80;60.30;;;;;;5026444;28;19932;-64
2022/08/26 13:48:15;;;;;;;;;;;25.80;60.30;;;;;;5025998;28;19927;-64
2022/08/26 13:50:41;;;;;;;;;;;25.80;60.50;;;;;;5026568;28;20020;-65
2022/08/26 13:53:09;;;;;;;;;;;25.80;60.50;;;;;;5054289;28;19932;-64
2022/08/26 13:55:35;;;;;;;;;;;25.80;60.60;;;;;;5022903;28;19931;-63
2022/08/26 13:58:02;;;;;;;;;;;25.80;60.70;;;;;;5023142;28;19928;-64
2022/08/26 14:00:31;;;;;;;;;;;25.80;60.70;;;;;;5025027;28;19987;-66
2022/08/26 14:02:57;;;;;;;;;;;25.80;60.80;;;;;;5026949;28;19921;-66
2022/08/26 14:05:26;;;;;;;;;;;25.80;60.80;;;;;;5021634;28;19924;-65
2022/08/26 14:07:53;;;;;;;;;;;25.80;60.80;;;;;;5023163;28;19921;-65
2022/08/26 14:10:20;;;;;;;;;;;25.90;60.90;;;;;;5026203;28;19940;-65
2022/08/26 14:12:47;;;;;;;;;;;25.80;60.80;;;;;;5025970;28;19921;-64
2022/08/26 14:15:16;;;;;;;;;;;25.90;60.90;;;;;;5026647;28;19924;-65
2022/08/26 14:17:45;;;;;;;;;;;25.90;61.00;;;;;;5027716;28;19944;-64
2022/08/26 14:20:12;;;;;;;;;;;25.90;61.00;;;;;;5025313;28;19960;-64
2022/08/26 14:22:38;;;;;;;;;;;25.90;61.00;;;;;;5026864;28;20026;-64
2022/08/26 14:25:05;;;;;;;;;;;25.90;61.00;;;;;;5023878;28;19925;-64
2022/08/26 14:27:32;;;;;;;;;;;25.90;61.00;;;;;;5019566;28;19921;-64
2022/08/26 14:29:59;;;;;;;;;;;25.90;61.00;;;;;;5026544;28;19960;-64